Time;durP1;ratioP1;P1;durP2;ratioP2;P2;SDS_P1;SDS_P2;PMS_P1;PMS_P2;Temp;Humidity;BMP_temperature;BMP_pressure;BME280_temperature;BME280_humidity;BME280_pressure;Samples;Min_cycle;Max_cycle;Signal;HPM_P1;HPM_P2
2022/07/13 00:01:29;;;;;;;4.70;0.50;;;;;;;15.94;55.77;100657.05;105875;1274;22560;-58
2022/07/13 00:03:58;;;;;;;6.60;0.50;;;;;;;15.94;55.84;100657.78;105636;1274;22547;-57
2022/07/13 00:06:27;;;;;;;1.90;0.30;;;;;;;15.94;56.02;100654.45;105707;1273;24303;-55
2022/07/13 00:08:55;;;;;;;1.30;0.40;;;;;;;15.93;56.19;100654.40;105921;1274;22560;-57
2022/07/13 00:11:24;;;;;;;4.40;0.40;;;;;;;15.93;56.31;100652.20;105878;1274;25349;-56
2022/07/13 00:13:53;;;;;;;3.20;0.40;;;;;;;15.93;56.44;100652.91;105744;1274;22954;-53
2022/07/13 00:16:22;;;;;;;4.70;0.40;;;;;;;15.92;56.55;100653.11;105730;1274;22564;-56
2022/07/13 00:18:51;;;;;;;2.20;0.40;;;;;;;15.93;56.78;100651.79;105827;1274;24299;-55
2022/07/13 00:21:20;;;;;;;1.80;0.40;;;;;;;15.93;56.84;100651.16;105748;1273;22539;-55
2022/07/13 00:23:49;;;;;;;2.00;0.50;;;;;;;15.93;56.87;100648.15;105801;1274;22569;-58
2022/07/13 00:26:18;;;;;;;3.60;0.30;;;;;;;15.92;56.91;100649.42;105825;1274;22707;-56
2022/07/13 00:28:47;;;;;;;3.70;0.50;;;;;;;15.90;57.09;100650.34;105774;1274;22557;-55
2022/07/13 00:31:16;;;;;;;3.20;0.50;;;;;;;15.89;57.18;100648.14;105792;1273;22605;-55
2022/07/13 00:33:44;;;;;;;2.80;0.50;;;;;;;15.86;57.24;100646.85;105779;1274;22592;-57
2022/07/13 00:36:14;;;;;;;6.50;0.40;;;;;;;15.83;57.51;100642.73;105820;1274;25469;-56
2022/07/13 00:38:43;;;;;;;4.60;0.60;;;;;;;15.79;57.62;100644.36;105916;1273;25343;-56
2022/07/13 00:41:12;;;;;;;2.90;0.40;;;;;;;15.75;57.95;100641.11;105669;1274;25333;-55
2022/07/13 00:43:41;;;;;;;2.80;0.70;;;;;;;15.71;57.81;100638.39;105617;1273;22568;-56
2022/07/13 00:46:11;;;;;;;2.10;0.40;;;;;;;15.69;58.06;100640.63;106028;1273;22560;-56
2022/07/13 00:48:41;;;;;;;3.90;0.50;;;;;;;15.67;58.33;100639.50;105889;1273;24208;-56
2022/07/13 00:51:09;;;;;;;;;;;;;;;15.65;58.49;100638.92;105853;1274;22542;-57
2022/07/13 00:53:39;;;;;;;4.00;0.40;;;;;;;15.61;58.73;100635.38;105715;1273;24291;-55
2022/07/13 00:56:09;;;;;;;1.30;0.30;;;;;;;15.59;58.70;100636.48;105635;1273;23284;-56
2022/07/13 00:58:41;;;;;;;1.20;0.30;;;;;;;15.58;58.98;100633.36;105741;1274;22555;-56
2022/07/13 01:01:10;;;;;;;2.40;0.30;;;;;;;15.57;58.95;100631.87;105881;1273;22712;-64
2022/07/13 01:03:39;;;;;;;6.00;0.50;;;;;;;15.57;59.21;100627.86;105821;1273;22563;-55
2022/07/13 01:06:10;;;;;;;1.10;0.30;;;;;;;15.56;59.28;100628.53;105816;1274;22590;-57
2022/07/13 01:08:39;;;;;;;2.50;0.50;;;;;;;15.54;59.64;100625.40;105931;1273;24685;-57
2022/07/13 01:11:09;;;;;;;1.90;0.40;;;;;;;15.52;59.51;100621.77;105822;1273;24533;-56
2022/07/13 01:13:40;;;;;;;3.00;0.60;;;;;;;15.49;59.82;100624.55;105676;1273;24303;-57
2022/07/13 01:16:09;;;;;;;3.30;0.60;;;;;;;15.47;59.84;100618.52;105586;1274;22570;-57
2022/07/13 01:18:38;;;;;;;4.00;0.50;;;;;;;15.46;59.86;100618.55;105636;1275;22576;-59
2022/07/13 01:21:08;;;;;;;3.80;0.40;;;;;;;15.46;60.09;100615.75;105815;1274;23495;-59
2022/07/13 01:23:37;;;;;;;7.10;0.50;;;;;;;15.45;60.24;100620.65;105817;1273;22545;-56
2022/07/13 01:26:07;;;;;;;4.30;0.40;;;;;;;15.44;60.49;100621.52;105757;1273;22551;-56
2022/07/13 01:28:36;;;;;;;2.60;0.50;;;;;;;15.43;60.40;100624.92;105617;1274;22544;-57
2022/07/13 01:31:05;;;;;;;3.80;0.50;;;;;;;15.43;60.45;100620.11;105726;1273;25695;-57
2022/07/13 01:33:34;;;;;;;3.00;0.50;;;;;;;15.43;60.68;100616.91;105773;1273;25460;-56
2022/07/13 01:36:04;;;;;;;3.70;0.60;;;;;;;15.42;60.80;100614.59;106324;1273;22538;-55
2022/07/13 01:38:32;;;;;;;3.40;0.30;;;;;;;15.39;60.85;100613.48;105908;1273;22684;-57
2022/07/13 01:41:03;;;;;;;2.40;0.50;;;;;;;15.36;60.83;100615.26;105752;1273;25602;-58
2022/07/13 01:43:32;;;;;;;3.00;0.60;;;;;;;15.33;60.91;100611.55;105723;1273;22703;-58
2022/07/13 01:46:03;;;;;;;2.10;0.40;;;;;;;15.30;61.05;100613.13;105654;1274;24250;-54
2022/07/13 01:48:33;;;;;;;2.50;0.50;;;;;;;15.27;61.25;100611.52;105607;1275;25312;-56
2022/07/13 01:51:01;;;;;;;1.90;0.50;;;;;;;15.23;61.31;100609.61;105721;1273;23281;-57
2022/07/13 01:53:30;;;;;;;3.20;0.50;;;;;;;15.18;61.30;100605.73;105866;1273;23359;-55
2022/07/13 01:55:59;;;;;;;2.30;0.50;;;;;;;15.15;61.49;100603.17;105719;1273;23935;-57
2022/07/13 01:58:28;;;;;;;3.20;0.60;;;;;;;15.11;61.48;100606.41;105803;1273;22572;-54
2022/07/13 02:00:58;;;;;;;2.60;0.60;;;;;;;15.07;61.47;100612.00;105781;1273;22556;-57
2022/07/13 02:03:29;;;;;;;3.90;0.70;;;;;;;15.04;61.64;100609.23;105773;1273;22575;-57
2022/07/13 02:05:58;;;;;;;9.30;0.80;;;;;;;15.02;61.87;100608.50;105936;1273;22714;-56
2022/07/13 02:08:28;;;;;;;2.30;0.60;;;;;;;15.00;61.85;100608.07;106606;1262;22538;-65
2022/07/13 02:10:56;;;;;;;7.20;0.60;;;;;;;14.97;62.04;100609.08;105746;1274;22901;-67
2022/07/13 02:13:25;;;;;;;2.80;0.50;;;;;;;14.94;62.29;100608.34;105958;1274;22605;-65
2022/07/13 02:15:55;;;;;;;3.20;0.50;;;;;;;14.92;62.32;100608.64;107526;1274;22620;-66
2022/07/13 02:18:24;;;;;;;1.60;0.50;;;;;;;14.90;62.51;100610.46;105778;1274;22510;-66
2022/07/13 02:20:53;;;;;;;3.50;0.70;;;;;;;14.88;62.57;100609.47;105689;1273;24376;-66
2022/07/13 02:23:21;;;;;;;6.00;0.80;;;;;;;14.86;62.63;100610.02;109603;1273;24104;-66
2022/07/13 02:25:50;;;;;;;2.60;0.60;;;;;;;14.86;62.80;100610.94;109547;1274;23264;-67
2022/07/13 02:28:19;;;;;;;4.40;0.60;;;;;;;14.84;62.93;100604.69;107897;1273;25381;-66
2022/07/13 02:30:51;;;;;;;3.50;0.90;;;;;;;14.83;62.87;100608.00;105874;1274;22560;-65
2022/07/13 02:33:20;;;;;;;5.90;0.90;;;;;;;14.81;63.06;100609.58;105775;1273;22545;-66
2022/07/13 02:35:49;;;;;;;5.00;0.80;;;;;;;14.78;63.03;100610.98;105793;1273;25632;-66
2022/07/13 02:38:19;;;;;;;2.70;0.70;;;;;;;14.75;63.19;100613.92;105734;1274;22624;-65
2022/07/13 02:40:48;;;;;;;3.80;0.70;;;;;;;14.73;63.26;100613.95;105757;1273;22506;-65
2022/07/13 02:43:17;;;;;;;6.10;1.00;;;;;;;14.70;63.33;100610.56;105707;1273;22870;-67
2022/07/13 02:45:46;;;;;;;5.40;1.20;;;;;;;14.68;63.52;100609.52;105836;1273;22604;-66
2022/07/13 02:48:16;;;;;;;6.50;0.70;;;;;;;14.65;63.60;100605.36;105776;1274;25445;-66
2022/07/13 02:50:44;;;;;;;4.80;1.10;;;;;;;14.61;63.67;100599.70;105876;1274;25385;-65
2022/07/13 02:53:13;;;;;;;4.50;0.70;;;;;;;14.57;63.82;100602.39;105704;1274;26825;-66
2022/07/13 02:55:42;;;;;;;4.10;0.60;;;;;;;14.53;63.85;100604.34;105874;1274;25482;-66
2022/07/13 02:58:11;;;;;;;4.00;0.70;;;;;;;14.49;63.91;100605.63;106107;1273;25280;-65
2022/07/13 03:00:40;;;;;;;4.90;0.70;;;;;;;14.45;64.18;100605.49;105728;1274;24281;-66
2022/07/13 03:03:08;;;;;;;2.50;0.70;;;;;;;14.42;64.15;100604.39;105823;1273;25381;-65
2022/07/13 03:05:38;;;;;;;5.80;0.80;;;;;;;14.40;64.47;100607.02;105753;1273;25292;-65
2022/07/13 03:08:07;;;;;;;6.80;0.80;;;;;;;14.37;64.52;100604.20;105854;1273;22993;-66
2022/07/13 03:10:35;;;;;;;4.00;0.70;;;;;;;14.35;64.75;100605.40;101944;1273;5512597;-66
2022/07/13 03:13:04;;;;;;;8.60;1.00;;;;;;;14.34;64.70;100606.85;105643;1273;22709;-65
2022/07/13 03:15:33;;;;;;;6.70;0.90;;;;;;;14.33;64.99;100605.89;105810;1274;22658;-65
2022/07/13 03:18:03;;;;;;;5.60;0.90;;;;;;;14.30;65.07;100607.48;105743;1273;24184;-66
2022/07/13 03:20:32;;;;;;;6.80;0.90;;;;;;;14.30;65.21;100606.77;105954;1273;22550;-67
2022/07/13 03:23:01;;;;;;;6.40;1.00;;;;;;;14.30;65.38;100608.40;105778;1273;22674;-66
2022/07/13 03:25:30;;;;;;;5.10;0.90;;;;;;;14.30;65.49;100605.96;105797;1273;23086;-65
2022/07/13 03:27:59;;;;;;;4.10;0.90;;;;;;;14.33;65.63;100600.98;105713;1273;24069;-65
2022/07/13 03:30:30;;;;;;;3.50;0.80;;;;;;;14.36;65.79;100600.09;105649;1274;24584;-66
2022/07/13 03:32:59;;;;;;;6.10;0.90;;;;;;;14.37;65.81;100602.62;105848;1273;22552;-65
2022/07/13 03:35:28;;;;;;;5.40;0.90;;;;;;;14.39;66.12;100603.50;105902;1273;22853;-66
2022/07/13 03:37:56;;;;;;;6.90;0.80;;;;;;;14.42;66.30;100601.27;105650;1274;23064;-65
2022/07/13 03:40:27;;;;;;;4.20;0.70;;;;;;;14.46;66.43;100598.77;105577;1274;24236;-66
2022/07/13 03:42:56;;;;;;;7.20;0.80;;;;;;;14.51;66.59;100597.98;105614;1274;25499;-66
2022/07/13 03:45:25;;;;;;;5.50;0.70;;;;;;;14.56;66.71;100595.73;105492;1274;22541;-66
2022/07/13 03:47:54;;;;;;;4.70;0.70;;;;;;;14.61;66.82;100590.27;105518;1276;22552;-66
2022/07/13 03:50:23;;;;;;;4.10;0.80;;;;;;;14.68;67.00;100587.60;105709;1274;22681;-66
2022/07/13 03:52:52;;;;;;;5.30;0.50;;;;;;;14.75;67.02;100592.20;105670;1274;24681;-66
2022/07/13 03:55:21;;;;;;;3.70;0.60;;;;;;;14.83;67.33;100594.20;105554;1275;22564;-66
2022/07/13 03:57:50;;;;;;;5.30;0.80;;;;;;;14.91;67.08;100591.25;105694;1274;22805;-65
2022/07/13 04:00:19;;;;;;;3.70;0.70;;;;;;;14.99;67.24;100590.48;105627;1274;25686;-66
2022/07/13 04:02:49;;;;;;;2.40;0.60;;;;;;;15.07;67.27;100592.28;105704;1274;26515;-66
2022/07/13 04:05:18;;;;;;;2.60;0.60;;;;;;;15.15;67.36;100583.84;105752;1274;24390;-66
2022/07/13 04:07:46;;;;;;;4.00;0.70;;;;;;;15.25;67.30;100579.65;105735;1274;24385;-65
2022/07/13 04:10:18;;;;;;;6.80;0.60;;;;;;;15.34;67.41;100575.87;105644;1274;22581;-66
2022/07/13 04:12:47;;;;;;;7.30;0.80;;;;;;;15.44;67.38;100576.70;105848;1275;22650;-66
2022/07/13 04:15:16;;;;;;;6.70;0.70;;;;;;;15.55;67.05;100577.57;105541;1274;22653;-66
2022/07/13 04:17:47;;;;;;;3.80;0.50;;;;;;;15.67;67.26;100580.84;105759;1274;22645;-65
2022/07/13 04:20:15;;;;;;;2.30;0.50;;;;;;;15.78;67.05;100581.30;105692;1274;22708;-66
2022/07/13 04:22:44;;;;;;;2.60;0.70;;;;;;;15.88;66.90;100578.97;105649;1274;22586;-67
2022/07/13 04:25:13;;;;;;;5.30;0.60;;;;;;;15.98;66.75;100581.66;105606;1274;25339;-65
2022/07/13 04:27:42;;;;;;;5.60;0.50;;;;;;;16.06;66.52;100583.16;105533;1274;25349;-66
2022/07/13 04:30:12;;;;;;;2.70;0.50;;;;;;;16.14;66.35;100582.09;105490;1276;22810;-65
2022/07/13 04:32:41;;;;;;;3.30;0.60;;;;;;;16.22;66.03;100586.11;105708;1275;25281;-66
2022/07/13 04:35:10;;;;;;;4.30;0.70;;;;;;;16.29;66.01;100586.02;105832;1273;23842;-65
2022/07/13 04:37:39;;;;;;;2.00;0.50;;;;;;;16.35;65.73;100583.36;105788;1273;22562;-66
2022/07/13 04:40:10;;;;;;;3.20;0.40;;;;;;;16.42;65.54;100584.02;105660;1273;22567;-66
2022/07/13 04:42:39;;;;;;;4.60;0.50;;;;;;;16.48;65.51;100584.30;105700;1273;22560;-65
2022/07/13 04:45:10;;;;;;;2.00;0.60;;;;;;;16.56;65.42;100585.29;105907;1273;25239;-65
2022/07/13 04:47:39;;;;;;;3.40;0.50;;;;;;;16.65;65.26;100590.52;105737;1273;22562;-66
2022/07/13 04:50:09;;;;;;;3.80;0.60;;;;;;;16.74;65.07;100595.29;105602;1273;22586;-66
2022/07/13 04:52:36;;;;;;;;;;;;;;;16.83;64.86;100592.72;105738;1273;24187;-65
2022/07/13 04:55:07;;;;;;;3.20;0.40;;;;;;;16.91;64.64;100594.45;105686;1273;23633;-64
2022/07/13 04:57:36;;;;;;;3.20;0.50;;;;;;;17.03;64.59;100593.52;105564;1273;22579;-65
2022/07/13 05:00:08;;;;;;;3.80;0.60;;;;;;;17.16;64.57;100593.08;105664;1273;25276;-65
2022/07/13 05:02:38;;;;;;;2.90;0.50;;;;;;;17.30;64.30;100593.70;106490;1273;22573;-65
2022/07/13 05:05:09;;;;;;;3.00;0.70;;;;;;;17.43;64.26;100595.02;105720;1273;22556;-66
2022/07/13 05:07:38;;;;;;;3.00;0.50;;;;;;;17.58;63.97;100595.60;108611;1273;22561;-66
2022/07/13 05:10:09;;;;;;;2.20;0.50;;;;;;;17.70;63.52;100596.02;105958;1273;25547;-66
2022/07/13 05:12:42;;;;;;;3.50;0.50;;;;;;;17.82;63.45;100597.04;105905;1273;22573;-66
2022/07/13 05:15:12;;;;;;;2.70;0.40;;;;;;;17.96;63.43;100597.23;105846;1273;22541;-65
2022/07/13 05:17:41;;;;;;;3.70;0.60;;;;;;;18.10;63.01;100596.06;105756;1273;25346;-65
2022/07/13 05:20:12;;;;;;;6.20;0.70;;;;;;;18.20;62.69;100594.66;106004;1273;25442;-66
2022/07/13 05:22:41;;;;;;;11.30;0.90;;;;;;;18.31;62.79;100590.48;106070;1273;25310;-66
2022/07/13 05:25:10;;;;;;;3.60;0.40;;;;;;;18.45;63.00;100590.45;105717;1273;22556;-65
2022/07/13 05:27:39;;;;;;;1.80;0.40;;;;;;;18.59;62.46;100589.89;105714;1273;22561;-65
2022/07/13 05:30:11;;;;;;;2.40;0.40;;;;;;;18.73;62.18;100586.23;105845;1273;22590;-64
2022/07/13 05:32:42;;;;;;;3.30;0.40;;;;;;;18.87;62.00;100585.69;105853;1273;22566;-65
2022/07/13 05:35:12;;;;;;;3.60;0.50;;;;;;;19.00;61.95;100586.91;105995;1273;22706;-65
2022/07/13 05:37:40;;;;;;;;;;;;;;;19.12;61.57;100582.04;105910;1273;22593;-66
2022/07/13 05:40:13;;;;;;;3.70;0.70;;;;;;;19.26;61.41;100585.91;105844;1273;22926;-67
2022/07/13 05:42:43;;;;;;;8.20;0.80;;;;;;;19.38;60.38;100585.71;105788;1273;22982;-65
2022/07/13 05:45:13;;;;;;;2.70;0.60;;;;;;;19.46;59.92;100586.08;106203;1267;25453;-65
2022/07/13 05:47:47;;;;;;;3.60;0.70;;;;;;;19.52;59.88;100587.19;105952;1274;25274;-66
2022/07/13 05:50:16;;;;;;;4.60;0.60;;;;;;;19.61;59.68;100588.05;105868;1273;22714;-66
2022/07/13 05:52:46;;;;;;;2.50;0.50;;;;;;;19.74;59.50;100592.98;105624;1273;22745;-65
2022/07/13 05:55:16;;;;;;;3.50;0.60;;;;;;;19.87;58.68;100602.20;106133;1273;23141;-65
2022/07/13 05:57:45;;;;;;;3.00;0.50;;;;;;;19.97;58.78;100591.14;105643;1273;26598;-67
2022/07/13 06:00:15;;;;;;;2.60;0.50;;;;;;;20.09;58.77;100589.06;105573;1274;23458;-65
2022/07/13 06:02:44;;;;;;;2.60;0.50;;;;;;;20.22;58.05;100597.60;105756;1273;22556;-66
2022/07/13 06:05:14;;;;;;;4.20;0.40;;;;;;;20.34;58.23;100600.38;105707;1273;22519;-66
2022/07/13 06:07:45;;;;;;;2.20;0.70;;;;;;;20.48;58.33;100597.23;105698;1274;22563;-65
2022/07/13 06:10:14;;;;;;;1.50;0.40;;;;;;;20.60;57.93;100595.52;105799;1273;25443;-65
2022/07/13 06:12:43;;;;;;;2.40;0.40;;;;;;;20.70;57.48;100594.19;105817;1273;22566;-67
2022/07/13 06:15:13;;;;;;;3.00;0.40;;;;;;;20.78;57.05;100599.88;105660;1273;24235;-66
2022/07/13 06:17:41;;;;;;;1.40;0.40;;;;;;;20.80;56.58;100598.61;105674;1273;22552;-66
2022/07/13 06:20:12;;;;;;;1.10;0.30;;;;;;;20.77;56.51;100596.23;105657;1273;22492;-65
2022/07/13 06:22:39;;;;;;;;;;;;;;;20.78;56.68;100602.20;105640;1274;24217;-66
2022/07/13 06:25:11;;;;;;;1.30;0.30;;;;;;;20.80;56.58;100598.70;105685;1273;25394;-65
2022/07/13 06:27:40;;;;;;;4.10;0.50;;;;;;;20.77;56.13;100601.13;105669;1273;23229;-66
2022/07/13 06:30:11;;;;;;;4.30;0.30;;;;;;;20.72;56.50;100602.46;105634;1273;23607;-65
2022/07/13 06:32:40;;;;;;;2.00;0.40;;;;;;;20.74;56.44;100603.15;105720;1273;22731;-66
2022/07/13 06:35:10;;;;;;;2.80;0.40;;;;;;;20.78;56.47;100597.65;105766;1273;22548;-65
2022/07/13 06:37:40;;;;;;;1.70;0.30;;;;;;;20.81;55.98;100601.38;105770;1273;22553;-66
2022/07/13 06:40:13;;;;;;;1.30;0.40;;;;;;;20.80;56.14;100594.21;105769;1273;22569;-65
2022/07/13 06:42:43;;;;;;;1.00;0.40;;;;;;;20.83;55.81;100598.55;105748;1273;22586;-66
2022/07/13 06:45:14;;;;;;;2.10;0.40;;;;;;;20.83;55.26;100604.80;105741;1272;22646;-65
2022/07/13 06:47:46;;;;;;;7.20;0.50;;;;;;;20.72;55.68;100602.24;105557;1273;22576;-66
2022/07/13 06:50:15;;;;;;;3.40;0.50;;;;;;;20.69;56.17;100614.33;105723;1273;24247;-66
2022/07/13 06:52:45;;;;;;;1.60;0.40;;;;;;;20.72;56.63;100613.60;105790;1273;22614;-66
2022/07/13 06:55:15;;;;;;;2.50;0.30;;;;;;;20.75;56.67;100613.34;105853;1273;22604;-66
2022/07/13 06:57:48;;;;;;;7.50;0.50;;;;;;;20.78;57.02;100620.24;105802;1273;22992;-66
2022/07/13 07:00:17;;;;;;;1.40;0.40;;;;;;;20.88;56.81;100618.17;105704;1273;25502;-65
2022/07/13 07:02:47;;;;;;;2.90;0.40;;;;;;;20.94;56.74;100615.64;105681;1274;22643;-66
2022/07/13 07:05:17;;;;;;;3.00;0.40;;;;;;;21.01;56.78;100616.88;105770;1273;25389;-65
2022/07/13 07:07:45;;;;;;;3.80;0.50;;;;;;;21.07;56.61;100615.97;105733;1273;22590;-65
2022/07/13 07:10:17;;;;;;;2.80;0.50;;;;;;;21.10;56.39;100621.79;105986;1273;25353;-66
2022/07/13 07:12:46;;;;;;;2.90;0.30;;;;;;;21.18;56.57;100615.37;105934;1274;24333;-65
2022/07/13 07:15:15;;;;;;;2.10;0.50;;;;;;;21.27;56.48;100610.17;105782;1273;23215;-66
2022/07/13 07:17:48;;;;;;;2.60;0.60;;;;;;;21.35;56.36;100608.89;105744;1273;22575;-65
2022/07/13 07:20:18;;;;;;;3.30;0.50;;;;;;;21.41;55.43;100610.73;105714;1273;25432;-66
2022/07/13 07:22:48;;;;;;;2.80;0.70;;;;;;;21.40;55.48;100608.59;105712;1273;25281;-65
2022/07/13 07:25:17;;;;;;;6.30;0.60;;;;;;;21.45;56.06;100607.26;105719;1273;23074;-67
2022/07/13 07:27:47;;;;;;;5.60;0.60;;;;;;;21.55;55.69;100598.84;105908;1273;22890;-66
2022/07/13 07:30:16;;;;;;;3.10;0.40;;;;;;;21.61;55.52;100603.06;105726;1273;22568;-66
2022/07/13 07:32:45;;;;;;;2.60;0.40;;;;;;;21.66;55.45;100600.26;105902;1273;22630;-66
2022/07/13 07:35:15;;;;;;;2.30;0.40;;;;;;;21.72;55.26;100602.20;105820;1273;22540;-66
2022/07/13 07:37:44;;;;;;;;;;;;;;;21.78;55.07;100605.60;105832;1273;22665;-66
2022/07/13 07:40:13;;;;;;;1.30;0.40;;;;;;;21.85;54.40;100604.86;105773;1273;22611;-66
2022/07/13 07:42:42;;;;;;;1.00;0.40;;;;;;;21.96;54.51;100603.42;105712;1273;24237;-66
2022/07/13 07:45:11;;;;;;;2.20;0.40;;;;;;;22.03;53.93;100606.89;105663;1273;24216;-66
2022/07/13 07:47:40;;;;;;;3.50;0.30;;;;;;;22.09;54.01;100603.23;105704;1273;22556;-65
2022/07/13 07:50:11;;;;;;;2.40;0.50;;;;;;;22.19;53.94;100605.81;105750;1273;26580;-66
2022/07/13 07:52:41;;;;;;;1.50;0.40;;;;;;;22.32;52.35;100602.11;105775;1273;24231;-67
2022/07/13 07:55:11;;;;;;;5.90;0.40;;;;;;;22.44;52.39;100607.05;105725;1273;22541;-65
2022/07/13 07:57:47;;;;;;;1.60;0.40;;;;;;;22.55;52.10;100609.79;105647;1273;22648;-66
2022/07/13 08:00:17;;;;;;;2.20;0.40;;;;;;;22.66;52.12;100600.59;105625;1273;22984;-65
2022/07/13 08:02:47;;;;;;;1.90;0.50;;;;;;;22.78;51.81;100606.80;105830;1273;22572;-66
2022/07/13 08:05:16;;;;;;;2.60;0.40;;;;;;;22.85;51.85;100605.74;105921;1273;22590;-66
2022/07/13 08:07:48;;;;;;;3.60;0.40;;;;;;;22.92;51.63;100603.40;105832;1273;25443;-66
2022/07/13 08:10:18;;;;;;;1.70;0.30;;;;;;;22.96;51.28;100600.08;106298;1264;24228;-55
2022/07/13 08:12:47;;;;;;;1.90;0.30;;;;;;;22.99;50.89;100598.29;105906;1273;23205;-52
2022/07/13 08:15:16;;;;;;;7.70;0.50;;;;;;;23.02;50.83;100601.58;105471;1274;25373;-56
2022/07/13 08:17:47;;;;;;;0.60;0.20;;;;;;;23.06;50.50;100599.46;105767;1273;24676;-56
2022/07/13 08:20:16;;;;;;;0.60;0.20;;;;;;;23.12;49.63;100603.79;105669;1273;22544;-55
2022/07/13 08:22:47;;;;;;;2.40;0.40;;;;;;;23.12;49.14;100604.94;105697;1273;23197;-55
2022/07/13 08:25:16;;;;;;;2.10;0.50;;;;;;;23.07;49.67;100602.42;105843;1271;23891;-56
2022/07/13 08:27:45;;;;;;;1.40;0.40;;;;;;;23.05;50.24;100599.83;105610;1273;25736;-55
2022/07/13 08:30:14;;;;;;;1.60;0.30;;;;;;;23.11;49.61;100593.83;106600;1274;24255;-57
2022/07/13 08:32:43;;;;;;;1.90;0.20;;;;;;;23.15;49.40;100589.41;105710;1273;22576;-55
2022/07/13 08:40:46;;;;;;;2.10;0.50;;;;;;;23.28;49.26;100605.08;105589;1274;22577;-54
2022/07/13 08:43:15;;;;;;;2.00;0.40;;;;;;;23.33;49.17;100601.34;105918;1273;24331;-58
2022/07/13 08:45:45;;;;;;;1.60;0.30;;;;;;;23.31;48.58;100610.52;105625;1273;22569;-57
2022/07/13 08:48:16;;;;;;;1.50;0.30;;;;;;;23.28;49.59;100599.17;105713;1273;24318;-53
2022/07/13 08:50:47;;;;;;;1.30;0.30;;;;;;;23.35;49.86;100608.23;105823;1273;25597;-55
2022/07/13 08:53:17;;;;;;;1.90;0.40;;;;;;;23.34;50.18;100605.61;105800;1273;22621;-55
2022/07/13 08:55:46;;;;;;;3.00;0.50;;;;;;;23.37;49.90;100603.54;105719;1273;22663;-56
2022/07/13 08:58:16;;;;;;;2.20;0.40;;;;;;;23.44;50.03;100602.55;105649;1273;25325;-55
2022/07/13 09:00:46;;;;;;;3.80;0.50;;;;;;;23.55;50.05;100596.85;105591;1273;25324;-56
2022/07/13 09:03:16;;;;;;;2.20;0.50;;;;;;;23.64;50.12;100597.48;105690;1273;22545;-56
2022/07/13 09:05:45;;;;;;;1.10;0.30;;;;;;;23.73;50.11;100597.40;105697;1273;22562;-56
2022/07/13 09:08:16;;;;;;;3.10;0.40;;;;;;;23.82;49.94;100597.41;105778;1273;24390;-56
2022/07/13 09:10:57;;;;;;;3.30;0.40;;;;;;;23.92;49.38;100595.09;105732;1273;26578;-55
2022/07/13 09:13:38;;;;;;;0.80;0.30;;;;;;;24.04;48.26;100592.70;105775;1273;25313;-55
2022/07/13 09:16:18;;;;;;;2.40;0.30;;;;;;;24.15;48.09;100588.24;105826;1273;22514;-56
2022/07/13 09:18:50;;;;;;;3.10;0.40;;;;;;;24.23;46.95;100597.52;105726;1273;22720;-56
2022/07/13 09:21:21;;;;;;;2.10;0.50;;;;;;;24.30;46.41;100590.51;105847;1273;25795;-57
2022/07/13 09:23:55;;;;;;;2.90;0.50;;;;;;;24.32;46.10;100595.38;105814;1273;22547;-58
2022/07/13 09:26:38;;;;;;;2.90;0.40;;;;;;;24.33;46.55;100586.48;105667;1273;24821;-58
2022/07/13 09:29:08;;;;;;;1.60;0.30;;;;;;;24.35;46.51;100586.94;105743;1273;22578;-57
2022/07/13 09:31:52;;;;;;;2.20;0.30;;;;;;;24.33;46.23;100584.57;105727;1273;25437;-56
2022/07/13 09:34:21;;;;;;;2.40;0.20;;;;;;;24.30;45.91;100582.31;105875;1273;22777;-57
2022/07/13 09:37:09;;;;;;;4.60;0.40;;;;;;;24.34;45.86;100581.69;105725;1273;22812;-56
2022/07/13 09:39:57;;;;;;;3.10;0.30;;;;;;;24.43;44.93;100576.00;105913;1273;22541;-54
2022/07/13 09:42:31;;;;;;;2.90;0.40;;;;;;;24.52;45.49;100575.44;105822;1273;22570;-56
2022/07/13 09:47:49;;;;;;;6.80;0.50;;;;;;;24.73;45.40;100570.84;105593;1273;22700;-56
2022/07/13 09:50:19;;;;;;;2.50;0.40;;;;;;;24.81;44.69;100570.13;105669;1273;23110;-55
2022/07/13 09:52:48;;;;;;;1.00;0.30;;;;;;;24.85;44.55;100569.52;105675;1273;24225;-57
2022/07/13 09:55:20;;;;;;;;;;;;;;;24.91;43.84;100575.65;105719;1273;22522;-56
2022/07/13 09:57:51;;;;;;;0.90;0.20;;;;;;;24.89;43.23;100580.60;105671;1273;22537;-54
2022/07/13 10:00:21;;;;;;;1.60;0.20;;;;;;;24.86;42.95;100584.47;105543;1273;25376;-56
2022/07/13 10:02:50;;;;;;;0.70;0.20;;;;;;;24.87;42.87;100581.44;105915;1273;26536;-59
2022/07/13 10:05:20;;;;;;;5.70;0.30;;;;;;;24.94;42.63;100578.91;105778;1273;22582;-55
2022/07/13 10:07:49;;;;;;;1.70;0.40;;;;;;;25.02;42.61;100574.34;105728;1273;22550;-56
2022/07/13 10:10:18;;;;;;;1.70;0.20;;;;;;;25.01;42.47;100575.41;105756;1273;22565;-56
2022/07/13 10:12:47;;;;;;;2.90;0.60;;;;;;;25.04;42.89;100573.88;106091;1273;25394;-55
2022/07/13 10:15:16;;;;;;;2.30;0.30;;;;;;;25.20;42.64;100573.03;105714;1273;22911;-58
2022/07/13 10:17:50;;;;;;;1.10;0.20;;;;;;;25.30;41.88;100571.33;105669;1273;24332;-58
2022/07/13 10:20:26;;;;;;;0.60;0.20;;;;;;;25.36;41.20;100574.10;105779;1273;22808;-57
2022/07/13 10:22:55;;;;;;;5.60;0.40;;;;;;;25.35;40.34;100566.80;105604;1273;24598;-55
2022/07/13 10:25:41;;;;;;;4.20;0.30;;;;;;;25.37;41.25;100568.36;105613;1273;24231;-55
2022/07/13 10:28:12;;;;;;;0.90;0.20;;;;;;;25.46;41.27;100569.56;105672;1273;22717;-56
2022/07/13 10:30:41;;;;;;;2.80;0.30;;;;;;;25.54;40.82;100571.65;105670;1273;22542;-58
2022/07/13 10:33:32;;;;;;;1.30;0.40;;;;;;;25.59;41.10;100559.40;105714;1273;25325;-54
2022/07/13 10:36:04;;;;;;;2.00;0.30;;;;;;;25.66;41.11;100559.67;105623;1275;25381;-57
2022/07/13 10:38:35;;;;;;;1.80;0.30;;;;;;;25.69;40.61;100554.33;105722;1273;22621;-58
2022/07/13 10:41:21;;;;;;;1.10;0.30;;;;;;;25.68;40.40;100553.27;105637;1274;22668;-55
2022/07/13 10:44:03;;;;;;;4.50;0.30;;;;;;;25.68;40.53;100545.67;105574;1273;22557;-55
2022/07/13 10:46:56;;;;;;;0.90;0.20;;;;;;;25.73;40.53;100543.38;105595;1273;25911;-58
2022/07/13 10:49:46;;;;;;;0.70;0.20;;;;;;;25.83;39.68;100542.60;105885;1273;25430;-57
2022/07/13 10:52:50;;;;;;;1.50;0.20;;;;;;;25.89;38.98;100545.94;105674;1273;25385;-54
2022/07/13 10:55:29;;;;;;;2.20;0.20;;;;;;;26.00;38.20;100534.83;105302;1278;24338;-57
2022/07/13 10:58:00;;;;;;;1.10;0.10;;;;;;;26.06;37.59;100532.54;105389;1277;22836;-58
2022/07/13 11:00:50;;;;;;;2.50;0.20;;;;;;;26.12;37.00;100536.48;105313;1278;22728;-57
2022/07/13 11:03:30;;;;;;;1.90;0.20;;;;;;;26.16;37.26;100534.83;105295;1278;22845;-57
2022/07/13 11:06:11;;;;;;;0.40;0.10;;;;;;;26.16;37.56;100531.97;105485;1277;22548;-55
2022/07/13 11:08:41;;;;;;;1.60;0.20;;;;;;;26.20;36.55;100534.80;105323;1277;25536;-56
2022/07/13 11:11:16;;;;;;;2.40;0.20;;;;;;;26.27;36.11;100535.70;105456;1277;22551;-56
2022/07/13 11:13:46;;;;;;;1.70;0.20;;;;;;;26.32;36.09;100531.38;105311;1278;22886;-55
2022/07/13 11:16:35;;;;;;;2.20;0.30;;;;;;;26.37;36.01;100533.40;105507;1278;22638;-57
2022/07/13 11:19:04;;;;;;;0.80;0.20;;;;;;;26.38;36.20;100525.64;105357;1278;24342;-54
2022/07/13 11:22:07;;;;;;;0.40;0.20;;;;;;;26.42;36.51;100521.40;105500;1278;22807;-55
2022/07/13 11:27:41;;;;;;;0.80;0.20;;;;;;;26.60;36.76;100515.36;105441;1277;25255;-56
2022/07/13 11:30:13;;;;;;;1.10;0.20;;;;;;;26.68;35.80;100515.45;105285;1278;22562;-57
2022/07/13 11:32:43;;;;;;;1.60;0.20;;;;;;;26.74;35.99;100509.95;105483;1274;22551;-56
2022/07/13 11:35:12;;;;;;;2.70;0.20;;;;;;;26.84;35.96;100503.38;105786;1273;22681;-56
2022/07/13 11:37:44;;;;;;;0.90;0.20;;;;;;;26.95;35.51;100508.39;105706;1273;22686;-55
2022/07/13 11:40:28;;;;;;;0.70;0.20;;;;;;;27.01;34.97;100508.79;105633;1273;25520;-55
2022/07/13 11:43:00;;;;;;;2.70;0.20;;;;;;;27.04;34.20;100508.10;105801;1273;22563;-57
2022/07/13 11:45:31;;;;;;;1.20;0.20;;;;;;;26.98;33.75;100510.19;105585;1273;22797;-55
2022/07/13 11:48:02;;;;;;;1.00;0.30;;;;;;;26.91;33.60;100504.73;105923;1273;22479;-56